sensor_id;sensor_type;location;lat;lon;timestamp;temperature;humidity
70676;DHT22;59069;52.242;20.900;2023-02-25T00:00:42;5.06;79.71
70676;DHT22;59069;52.242;20.900;2023-02-25T00:03:09;5.01;79.82
70676;DHT22;59069;52.242;20.900;2023-02-25T00:05:39;5.03;79.85
70676;DHT22;59069;52.242;20.900;2023-02-25T00:08:05;5.01;79.94
70676;DHT22;59069;52.242;20.900;2023-02-25T00:10:30;5.00;80.08
70676;DHT22;59069;52.242;20.900;2023-02-25T00:12:56;4.98;80.05
70676;DHT22;59069;52.242;20.900;2023-02-25T00:15:22;4.98;80.07
70676;DHT22;59069;52.242;20.900;2023-02-25T00:17:47;5.00;80.07
70676;DHT22;59069;52.242;20.900;2023-02-25T00:20:15;5.00;80.12
70676;DHT22;59069;52.242;20.900;2023-02-25T00:22:42;5.00;80.02
70676;DHT22;59069;52.242;20.900;2023-02-25T00:25:08;4.98;80.11
70676;DHT22;59069;52.242;20.900;2023-02-25T00:27:34;4.98;80.13
70676;DHT22;59069;52.242;20.900;2023-02-25T00:30:00;5.00;80.12
70676;DHT22;59069;52.242;20.900;2023-02-25T00:32:25;5.01;80.18
70676;DHT22;59069;52.242;20.900;2023-02-25T00:34:51;5.04;80.02
70676;DHT22;59069;52.242;20.900;2023-02-25T00:37:17;5.04;79.90
70676;DHT22;59069;52.242;20.900;2023-02-25T00:39:43;5.10;79.91
70676;DHT22;59069;52.242;20.900;2023-02-25T00:42:11;5.08;79.81
70676;DHT22;59069;52.242;20.900;2023-02-25T00:44:37;5.13;79.80
70676;DHT22;59069;52.242;20.900;2023-02-25T00:47:04;5.08;79.90
70676;DHT22;59069;52.242;20.900;2023-02-25T00:49:31;5.11;79.79
70676;DHT22;59069;52.242;20.900;2023-02-25T00:51:57;5.11;79.73
70676;DHT22;59069;52.242;20.900;2023-02-25T00:54:23;5.16;79.60
70676;DHT22;59069;52.242;20.900;2023-02-25T00:56:49;5.13;79.56
70676;DHT22;59069;52.242;20.900;2023-02-25T00:59:14;5.11;79.72
70676;DHT22;59069;52.242;20.900;2023-02-25T01:01:40;5.17;79.80
70676;DHT22;59069;52.242;20.900;2023-02-25T01:04:07;5.14;79.79
70676;DHT22;59069;52.242;20.900;2023-02-25T01:06:35;5.18;79.74
70676;DHT22;59069;52.242;20.900;2023-02-25T01:09:02;5.16;79.68
70676;DHT22;59069;52.242;20.900;2023-02-25T01:11:34;5.13;79.87
70676;DHT22;59069;52.242;20.900;2023-02-25T01:14:03;5.10;80.01
70676;DHT22;59069;52.242;20.900;2023-02-25T01:16:31;5.07;80.14
70676;DHT22;59069;52.242;20.900;2023-02-25T01:19:03;5.01;80.42
70676;DHT22;59069;52.242;20.900;2023-02-25T01:21:32;4.97;80.57
70676;DHT22;59069;52.242;20.900;2023-02-25T01:24:01;4.96;80.68
70676;DHT22;59069;52.242;20.900;2023-02-25T01:26:30;4.91;80.80
70676;DHT22;59069;52.242;20.900;2023-02-25T01:28:56;4.89;80.88
70676;DHT22;59069;52.242;20.900;2023-02-25T01:31:23;4.84;81.07
70676;DHT22;59069;52.242;20.900;2023-02-25T01:33:55;4.81;81.29
70676;DHT22;59069;52.242;20.900;2023-02-25T01:36:21;4.76;81.52
70676;DHT22;59069;52.242;20.900;2023-02-25T01:38:47;4.72;81.66
70676;DHT22;59069;52.242;20.900;2023-02-25T01:41:13;4.73;81.81
70676;DHT22;59069;52.242;20.900;2023-02-25T01:43:39;4.67;81.98
70676;DHT22;59069;52.242;20.900;2023-02-25T01:46:05;4.65;82.10
70676;DHT22;59069;52.242;20.900;2023-02-25T01:48:34;4.60;82.18
70676;DHT22;59069;52.242;20.900;2023-02-25T01:51:10;4.56;82.18
70676;DHT22;59069;52.242;20.900;2023-02-25T01:53:42;4.52;82.28
70676;DHT22;59069;52.242;20.900;2023-02-25T01:56:09;4.48;82.48
70676;DHT22;59069;52.242;20.900;2023-02-25T01:58:37;4.44;82.69
70676;DHT22;59069;52.242;20.900;2023-02-25T02:01:07;4.41;82.72
70676;DHT22;59069;52.242;20.900;2023-02-25T02:03:36;4.36;82.88
70676;DHT22;59069;52.242;20.900;2023-02-25T02:06:09;4.36;82.97
70676;DHT22;59069;52.242;20.900;2023-02-25T02:08:37;4.35;83.06
70676;DHT22;59069;52.242;20.900;2023-02-25T02:11:03;4.34;83.26
70676;DHT22;59069;52.242;20.900;2023-02-25T02:13:30;4.38;83.36
70676;DHT22;59069;52.242;20.900;2023-02-25T02:18:34;4.36;83.54
70676;DHT22;59069;52.242;20.900;2023-02-25T02:21:43;4.38;83.64
70676;DHT22;59069;52.242;20.900;2023-02-25T02:41:04;4.44;83.99
70676;DHT22;59069;52.242;20.900;2023-02-25T02:43:40;4.42;84.08
70676;DHT22;59069;52.242;20.900;2023-02-25T02:46:38;4.45;84.11
70676;DHT22;59069;52.242;20.900;2023-02-25T02:49:16;4.44;84.23
70676;DHT22;59069;52.242;20.900;2023-02-25T02:51:48;4.42;84.26
70676;DHT22;59069;52.242;20.900;2023-02-25T02:54:17;4.46;84.33
70676;DHT22;59069;52.242;20.900;2023-02-25T02:56:44;4.45;84.33
70676;DHT22;59069;52.242;20.900;2023-02-25T02:59:17;4.46;84.32
70676;DHT22;59069;52.242;20.900;2023-02-25T03:02:18;4.41;84.42
70676;DHT22;59069;52.242;20.900;2023-02-25T03:04:49;4.41;84.35
70676;DHT22;59069;52.242;20.900;2023-02-25T03:07:16;4.41;84.37
70676;DHT22;59069;52.242;20.900;2023-02-25T03:09:57;4.35;84.34
70676;DHT22;59069;52.242;20.900;2023-02-25T03:12:23;4.31;84.39
70676;DHT22;59069;52.242;20.900;2023-02-25T03:14:49;4.26;84.48
70676;DHT22;59069;52.242;20.900;2023-02-25T03:17:24;4.24;84.63
70676;DHT22;59069;52.242;20.900;2023-02-25T03:19:55;4.15;84.68
70676;DHT22;59069;52.242;20.900;2023-02-25T03:22:32;4.15;84.80
70676;DHT22;59069;52.242;20.900;2023-02-25T03:25:28;4.09;84.83
70676;DHT22;59069;52.242;20.900;2023-02-25T03:27:58;4.04;84.93
70676;DHT22;59069;52.242;20.900;2023-02-25T03:33:10;3.91;84.94
70676;DHT22;59069;52.242;20.900;2023-02-25T03:35:39;3.88;85.01
70676;DHT22;59069;52.242;20.900;2023-02-25T03:38:08;3.81;85.08
70676;DHT22;59069;52.242;20.900;2023-02-25T03:40:36;3.77;85.17
70676;DHT22;59069;52.242;20.900;2023-02-25T03:43:09;3.74;85.26
70676;DHT22;59069;52.242;20.900;2023-02-25T03:45:37;3.74;85.36
70676;DHT22;59069;52.242;20.900;2023-02-25T03:48:05;3.74;85.48
70676;DHT22;59069;52.242;20.900;2023-02-25T03:53:24;3.70;85.57
70676;DHT22;59069;52.242;20.900;2023-02-25T03:55:50;3.64;85.45
70676;DHT22;59069;52.242;20.900;2023-02-25T03:58:16;3.59;85.54
70676;DHT22;59069;52.242;20.900;2023-02-25T04:00:43;3.56;85.64
70676;DHT22;59069;52.242;20.900;2023-02-25T04:03:10;3.54;85.64
70676;DHT22;59069;52.242;20.900;2023-02-25T04:05:37;3.49;85.58
70676;DHT22;59069;52.242;20.900;2023-02-25T04:08:03;3.43;85.45
70676;DHT22;59069;52.242;20.900;2023-02-25T04:10:30;3.39;85.53
70676;DHT22;59069;52.242;20.900;2023-02-25T04:12:57;3.36;85.62
70676;DHT22;59069;52.242;20.900;2023-02-25T04:15:23;3.32;85.74
70676;DHT22;59069;52.242;20.900;2023-02-25T04:17:53;3.27;85.91
70676;DHT22;59069;52.242;20.900;2023-02-25T04:20:18;3.23;85.95
70676;DHT22;59069;52.242;20.900;2023-02-25T04:22:44;3.20;86.00
70676;DHT22;59069;52.242;20.900;2023-02-25T04:25:10;3.15;86.04
70676;DHT22;59069;52.242;20.900;2023-02-25T04:27:36;3.13;86.12
70676;DHT22;59069;52.242;20.900;2023-02-25T04:30:02;3.12;86.16
70676;DHT22;59069;52.242;20.900;2023-02-25T04:32:28;3.09;86.15
70676;DHT22;59069;52.242;20.900;2023-02-25T04:34:53;3.05;86.27
70676;DHT22;59069;52.242;20.900;2023-02-25T04:37:19;3.05;86.40
70676;DHT22;59069;52.242;20.900;2023-02-25T04:39:44;3.02;86.46
70676;DHT22;59069;52.242;20.900;2023-02-25T04:42:10;2.96;86.56
70676;DHT22;59069;52.242;20.900;2023-02-25T04:44:35;2.96;86.65
70676;DHT22;59069;52.242;20.900;2023-02-25T04:47:01;2.95;86.80
70676;DHT22;59069;52.242;20.900;2023-02-25T04:49:27;2.99;86.85
70676;DHT22;59069;52.242;20.900;2023-02-25T04:51:52;2.96;86.86
70676;DHT22;59069;52.242;20.900;2023-02-25T04:54:19;2.95;87.00
70676;DHT22;59069;52.242;20.900;2023-02-25T04:56:45;2.94;86.99
70676;DHT22;59069;52.242;20.900;2023-02-25T04:59:12;2.89;86.94
70676;DHT22;59069;52.242;20.900;2023-02-25T05:01:38;2.89;87.00
70676;DHT22;59069;52.242;20.900;2023-02-25T05:04:04;2.85;87.15
70676;DHT22;59069;52.242;20.900;2023-02-25T05:06:30;2.82;87.25
70676;DHT22;59069;52.242;20.900;2023-02-25T05:08:57;2.81;87.37
70676;DHT22;59069;52.242;20.900;2023-02-25T05:11:24;2.80;87.56
70676;DHT22;59069;52.242;20.900;2023-02-25T05:13:50;2.81;87.66
70676;DHT22;59069;52.242;20.900;2023-02-25T05:16:17;2.80;87.77
70676;DHT22;59069;52.242;20.900;2023-02-25T05:18:45;2.78;87.93
70676;DHT22;59069;52.242;20.900;2023-02-25T05:21:19;2.80;88.09
70676;DHT22;59069;52.242;20.900;2023-02-25T05:23:46;2.78;88.15
70676;DHT22;59069;52.242;20.900;2023-02-25T05:26:13;2.82;88.12
70676;DHT22;59069;52.242;20.900;2023-02-25T05:28:39;2.80;88.08
70676;DHT22;59069;52.242;20.900;2023-02-25T05:31:06;2.78;88.07
70676;DHT22;59069;52.242;20.900;2023-02-25T05:33:34;2.75;88.13
70676;DHT22;59069;52.242;20.900;2023-02-25T05:35:59;2.74;88.19
70676;DHT22;59069;52.242;20.900;2023-02-25T05:38:25;2.71;88.25
70676;DHT22;59069;52.242;20.900;2023-02-25T05:40:53;2.70;88.30
70676;DHT22;59069;52.242;20.900;2023-02-25T05:43:19;2.66;88.40
70676;DHT22;59069;52.242;20.900;2023-02-25T05:45:54;2.66;88.42
70676;DHT22;59069;52.242;20.900;2023-02-25T05:48:20;2.62;88.41
70676;DHT22;59069;52.242;20.900;2023-02-25T05:50:48;2.64;88.49
70676;DHT22;59069;52.242;20.900;2023-02-25T05:53:18;2.65;88.52
70676;DHT22;59069;52.242;20.900;2023-02-25T05:55:44;2.62;88.57
70676;DHT22;59069;52.242;20.900;2023-02-25T05:58:11;2.64;88.61
70676;DHT22;59069;52.242;20.900;2023-02-25T06:00:37;2.66;88.62
70676;DHT22;59069;52.242;20.900;2023-02-25T06:03:04;2.65;88.61
70676;DHT22;59069;52.242;20.900;2023-02-25T06:05:29;2.68;88.78
70676;DHT22;59069;52.242;20.900;2023-02-25T06:07:58;2.70;88.80
70676;DHT22;59069;52.242;20.900;2023-02-25T06:10:24;2.72;88.75
70676;DHT22;59069;52.242;20.900;2023-02-25T06:12:50;2.74;88.73
70676;DHT22;59069;52.242;20.900;2023-02-25T06:15:16;2.75;88.78
70676;DHT22;59069;52.242;20.900;2023-02-25T06:17:42;2.80;88.82
70676;DHT22;59069;52.242;20.900;2023-02-25T06:20:08;2.81;88.76
70676;DHT22;59069;52.242;20.900;2023-02-25T06:22:34;2.84;88.74
70676;DHT22;59069;52.242;20.900;2023-02-25T06:25:00;2.82;88.75
70676;DHT22;59069;52.242;20.900;2023-02-25T06:27:26;2.85;88.82
70676;DHT22;59069;52.242;20.900;2023-02-25T06:29:52;2.91;88.80
70676;DHT22;59069;52.242;20.900;2023-02-25T06:32:17;2.91;88.71
70676;DHT22;59069;52.242;20.900;2023-02-25T06:34:44;2.95;88.81
70676;DHT22;59069;52.242;20.900;2023-02-25T06:37:09;2.95;88.76
70676;DHT22;59069;52.242;20.900;2023-02-25T06:39:35;2.96;88.71
70676;DHT22;59069;52.242;20.900;2023-02-25T06:42:01;2.98;88.82
70676;DHT22;59069;52.242;20.900;2023-02-25T06:44:26;3.02;88.76
70676;DHT22;59069;52.242;20.900;2023-02-25T06:46:54;3.02;88.74
70676;DHT22;59069;52.242;20.900;2023-02-25T06:49:20;2.99;88.75
70676;DHT22;59069;52.242;20.900;2023-02-25T06:51:46;3.01;88.74
70676;DHT22;59069;52.242;20.900;2023-02-25T06:54:16;3.02;88.77
70676;DHT22;59069;52.242;20.900;2023-02-25T06:56:42;3.02;88.87
70676;DHT22;59069;52.242;20.900;2023-02-25T06:59:07;3.03;88.80
70676;DHT22;59069;52.242;20.900;2023-02-25T07:01:33;3.03;88.96
70676;DHT22;59069;52.242;20.900;2023-02-25T07:03:59;3.05;89.07
70676;DHT22;59069;52.242;20.900;2023-02-25T07:06:25;3.08;89.05
70676;DHT22;59069;52.242;20.900;2023-02-25T07:08:50;3.08;89.08
70676;DHT22;59069;52.242;20.900;2023-02-25T07:13:42;3.13;89.06
70676;DHT22;59069;52.242;20.900;2023-02-25T07:16:09;3.16;89.01
70676;DHT22;59069;52.242;20.900;2023-02-25T07:18:35;3.22;89.15
70676;DHT22;59069;52.242;20.900;2023-02-25T07:21:00;3.23;89.15
70676;DHT22;59069;52.242;20.900;2023-02-25T07:23:26;3.26;89.15
70676;DHT22;59069;52.242;20.900;2023-02-25T07:25:51;3.30;89.14
70676;DHT22;59069;52.242;20.900;2023-02-25T07:28:17;3.36;89.03
70676;DHT22;59069;52.242;20.900;2023-02-25T07:30:43;3.42;89.06
70676;DHT22;59069;52.242;20.900;2023-02-25T07:33:08;3.46;88.95
70676;DHT22;59069;52.242;20.900;2023-02-25T07:35:34;3.52;88.78
70676;DHT22;59069;52.242;20.900;2023-02-25T07:37:59;3.52;88.67
70676;DHT22;59069;52.242;20.900;2023-02-25T07:40:25;3.53;88.64
70676;DHT22;59069;52.242;20.900;2023-02-25T07:42:50;3.57;88.52
70676;DHT22;59069;52.242;20.900;2023-02-25T07:45:16;3.60;88.52
70676;DHT22;59069;52.242;20.900;2023-02-25T07:47:42;3.67;88.91
70676;DHT22;59069;52.242;20.900;2023-02-25T07:50:09;3.71;88.82
70676;DHT22;59069;52.242;20.900;2023-02-25T07:52:35;3.77;88.58
70676;DHT22;59069;52.242;20.900;2023-02-25T07:55:03;3.83;88.45
70676;DHT22;59069;52.242;20.900;2023-02-25T07:57:29;3.84;88.38
70676;DHT22;59069;52.242;20.900;2023-02-25T07:59:55;3.85;88.09
70676;DHT22;59069;52.242;20.900;2023-02-25T08:02:23;3.85;87.86
70676;DHT22;59069;52.242;20.900;2023-02-25T08:04:49;3.87;87.84
70676;DHT22;59069;52.242;20.900;2023-02-25T08:07:15;3.91;87.63
70676;DHT22;59069;52.242;20.900;2023-02-25T08:09:40;3.91;87.65
70676;DHT22;59069;52.242;20.900;2023-02-25T08:12:07;3.93;87.43
70676;DHT22;59069;52.242;20.900;2023-02-25T08:14:33;3.93;87.32
70676;DHT22;59069;52.242;20.900;2023-02-25T08:16:58;3.95;87.32
70676;DHT22;59069;52.242;20.900;2023-02-25T08:19:26;3.98;87.12
70676;DHT22;59069;52.242;20.900;2023-02-25T08:21:52;4.01;87.08
70676;DHT22;59069;52.242;20.900;2023-02-25T08:24:21;4.01;87.08
70676;DHT22;59069;52.242;20.900;2023-02-25T08:26:47;4.01;86.83
70676;DHT22;59069;52.242;20.900;2023-02-25T08:29:13;4.01;86.83
70676;DHT22;59069;52.242;20.900;2023-02-25T08:31:38;3.99;86.69
70676;DHT22;59069;52.242;20.900;2023-02-25T08:34:04;4.02;86.77
70676;DHT22;59069;52.242;20.900;2023-02-25T08:36:30;4.05;86.91
70676;DHT22;59069;52.242;20.900;2023-02-25T08:38:57;4.11;87.05
70676;DHT22;59069;52.242;20.900;2023-02-25T08:41:25;4.21;87.17
70676;DHT22;59069;52.242;20.900;2023-02-25T08:43:53;4.32;87.26
70676;DHT22;59069;52.242;20.900;2023-02-25T08:46:23;4.42;87.31
70676;DHT22;59069;52.242;20.900;2023-02-25T08:48:51;4.52;87.19
70676;DHT22;59069;52.242;20.900;2023-02-25T08:51:18;4.59;86.68
70676;DHT22;59069;52.242;20.900;2023-02-25T08:53:43;4.70;86.51
70676;DHT22;59069;52.242;20.900;2023-02-25T08:56:12;4.79;86.23
70676;DHT22;59069;52.242;20.900;2023-02-25T08:58:38;4.86;86.09
70676;DHT22;59069;52.242;20.900;2023-02-25T09:01:08;4.94;85.60
70676;DHT22;59069;52.242;20.900;2023-02-25T09:03:38;4.98;84.97
70676;DHT22;59069;52.242;20.900;2023-02-25T09:06:04;5.01;84.82
70676;DHT22;59069;52.242;20.900;2023-02-25T09:08:30;5.03;84.66
70676;DHT22;59069;52.242;20.900;2023-02-25T09:10:56;5.07;84.35
70676;DHT22;59069;52.242;20.900;2023-02-25T09:13:21;5.08;84.12
70676;DHT22;59069;52.242;20.900;2023-02-25T09:15:55;5.16;84.09
70676;DHT22;59069;52.242;20.900;2023-02-25T09:18:20;5.17;83.71
70676;DHT22;59069;52.242;20.900;2023-02-25T09:20:49;5.26;83.68
70676;DHT22;59069;52.242;20.900;2023-02-25T09:23:15;5.28;83.79
70676;DHT22;59069;52.242;20.900;2023-02-25T09:25:40;5.39;83.48
70676;DHT22;59069;52.242;20.900;2023-02-25T09:28:09;5.41;82.84
70676;DHT22;59069;52.242;20.900;2023-02-25T09:30:34;5.45;82.48
70676;DHT22;59069;52.242;20.900;2023-02-25T09:33:00;5.39;81.97
70676;DHT22;59069;52.242;20.900;2023-02-25T09:35:25;5.47;81.57
70676;DHT22;59069;52.242;20.900;2023-02-25T09:37:51;5.49;81.77
70676;DHT22;59069;52.242;20.900;2023-02-25T09:40:17;5.62;81.84
70676;DHT22;59069;52.242;20.900;2023-02-25T09:43:01;5.69;81.56
70676;DHT22;59069;52.242;20.900;2023-02-25T09:45:30;5.93;82.57
70676;DHT22;59069;52.242;20.900;2023-02-25T09:48:03;6.20;83.67
70676;DHT22;59069;52.242;20.900;2023-02-25T09:50:34;6.30;80.15
70676;DHT22;59069;52.242;20.900;2023-02-25T09:55:47;6.30;78.49
70676;DHT22;59069;52.242;20.900;2023-02-25T09:58:24;6.29;77.87
70676;DHT22;59069;52.242;20.900;2023-02-25T10:01:11;6.23;77.22
70676;DHT22;59069;52.242;20.900;2023-02-25T10:03:47;6.13;76.59
70676;DHT22;59069;52.242;20.900;2023-02-25T10:06:22;6.05;76.50
70676;DHT22;59069;52.242;20.900;2023-02-25T10:11:50;6.02;76.24
70676;DHT22;59069;52.242;20.900;2023-02-25T10:23:12;5.61;74.15
70676;DHT22;59069;52.242;20.900;2023-02-25T10:25:55;5.24;74.63
70676;DHT22;59069;52.242;20.900;2023-02-25T10:28:23;4.89;75.51
70676;DHT22;59069;52.242;20.900;2023-02-25T10:30:56;4.59;76.55
70676;DHT22;59069;52.242;20.900;2023-02-25T10:33:24;4.32;77.67
70676;DHT22;59069;52.242;20.900;2023-02-25T10:38:43;4.01;79.55
70676;DHT22;59069;52.242;20.900;2023-02-25T10:41:10;3.99;80.46
70676;DHT22;59069;52.242;20.900;2023-02-25T10:43:36;4.05;81.08
70676;DHT22;59069;52.242;20.900;2023-02-25T10:46:10;4.07;81.30
70676;DHT22;59069;52.242;20.900;2023-02-25T10:48:39;4.18;81.71
70676;DHT22;59069;52.242;20.900;2023-02-25T10:51:08;4.26;81.93
70676;DHT22;59069;52.242;20.900;2023-02-25T10:56:21;4.42;81.73
70676;DHT22;59069;52.242;20.900;2023-02-25T10:59:30;4.53;82.04
70676;DHT22;59069;52.242;20.900;2023-02-25T11:01:59;4.66;82.37
70676;DHT22;59069;52.242;20.900;2023-02-25T11:04:33;4.79;82.05
70676;DHT22;59069;52.242;20.900;2023-02-25T11:07:00;4.86;82.00
70676;DHT22;59069;52.242;20.900;2023-02-25T11:09:30;4.93;81.80
70676;DHT22;59069;52.242;20.900;2023-02-25T11:11:58;4.96;81.48
70676;DHT22;59069;52.242;20.900;2023-02-25T11:14:31;4.94;81.08
70676;DHT22;59069;52.242;20.900;2023-02-25T11:17:17;4.89;80.58
70676;DHT22;59069;52.242;20.900;2023-02-25T11:19:52;4.81;80.72
70676;DHT22;59069;52.242;20.900;2023-02-25T11:22:28;4.80;81.16
70676;DHT22;59069;52.242;20.900;2023-02-25T11:25:13;4.83;81.86
70676;DHT22;59069;52.242;20.900;2023-02-25T11:27:41;4.80;81.44
70676;DHT22;59069;52.242;20.900;2023-02-25T11:32:58;4.83;81.15
70676;DHT22;59069;52.242;20.900;2023-02-25T11:35:34;4.89;81.40
70676;DHT22;59069;52.242;20.900;2023-02-25T11:38:38;5.07;82.56
70676;DHT22;59069;52.242;20.900;2023-02-25T11:41:14;5.34;83.27
70676;DHT22;59069;52.242;20.900;2023-02-25T11:43:41;5.59;83.31
70676;DHT22;59069;52.242;20.900;2023-02-25T11:46:18;5.85;83.07
70676;DHT22;59069;52.242;20.900;2023-02-25T11:48:50;6.00;81.92
70676;DHT22;59069;52.242;20.900;2023-02-25T11:51:27;6.06;80.03
70676;DHT22;59069;52.242;20.900;2023-02-25T11:56:41;5.85;77.96
70676;DHT22;59069;52.242;20.900;2023-02-25T11:59:43;5.75;77.92
70676;DHT22;59069;52.242;20.900;2023-02-25T12:12:51;5.21;78.60
70676;DHT22;59069;52.242;20.900;2023-02-25T12:18:37;5.14;79.00
70676;DHT22;59069;52.242;20.900;2023-02-25T12:31:21;4.89;78.42
70676;DHT22;59069;52.242;20.900;2023-02-25T12:53:23;3.74;81.69
70676;DHT22;59069;52.242;20.900;2023-02-25T12:56:14;3.76;81.84
70676;DHT22;59069;52.242;20.900;2023-02-25T13:02:11;3.74;82.21
70676;DHT22;59069;52.242;20.900;2023-02-25T13:10:56;3.87;83.12
70676;DHT22;59069;52.242;20.900;2023-02-25T13:27:26;5.32;82.94
70676;DHT22;59069;52.242;20.900;2023-02-25T13:33:04;5.34;80.65
70676;DHT22;59069;52.242;20.900;2023-02-25T13:49:50;4.94;81.01
70676;DHT22;59069;52.242;20.900;2023-02-25T13:54:57;5.08;81.59
70676;DHT22;59069;52.242;20.900;2023-02-25T13:57:46;5.20;81.61
70676;DHT22;59069;52.242;20.900;2023-02-25T14:06:00;5.48;80.07
70676;DHT22;59069;52.242;20.900;2023-02-25T14:19:42;5.14;79.58
70676;DHT22;59069;52.242;20.900;2023-02-25T14:22:23;5.07;79.63
70676;DHT22;59069;52.242;20.900;2023-02-25T14:25:21;5.01;79.88
70676;DHT22;59069;52.242;20.900;2023-02-25T14:33:34;4.72;79.82
70676;DHT22;59069;52.242;20.900;2023-02-25T14:36:08;4.60;80.27
70676;DHT22;59069;52.242;20.900;2023-02-25T14:39:12;4.56;80.53
70676;DHT22;59069;52.242;20.900;2023-02-25T14:47:34;4.49;81.49
70676;DHT22;59069;52.242;20.900;2023-02-25T14:58:57;4.41;81.97
70676;DHT22;59069;52.242;20.900;2023-02-25T15:13:46;4.12;83.26
70676;DHT22;59069;52.242;20.900;2023-02-25T15:19:34;4.12;83.61
70676;DHT22;59069;52.242;20.900;2023-02-25T15:22:19;4.15;83.79
70676;DHT22;59069;52.242;20.900;2023-02-25T15:24:46;4.17;83.94
70676;DHT22;59069;52.242;20.900;2023-02-25T15:27:40;4.19;83.93
70676;DHT22;59069;52.242;20.900;2023-02-25T15:38:10;4.14;84.17
70676;DHT22;59069;52.242;20.900;2023-02-25T15:40:51;4.12;84.21
70676;DHT22;59069;52.242;20.900;2023-02-25T15:45:48;4.12;84.25
70676;DHT22;59069;52.242;20.900;2023-02-25T15:55:45;4.05;84.25
70676;DHT22;59069;52.242;20.900;2023-02-25T16:00:56;4.02;84.33
70676;DHT22;59069;52.242;20.900;2023-02-25T16:05:51;3.97;84.48
70676;DHT22;59069;52.242;20.900;2023-02-25T16:08:23;3.93;84.37
70676;DHT22;59069;52.242;20.900;2023-02-25T16:10:52;3.90;84.50
70676;DHT22;59069;52.242;20.900;2023-02-25T16:13:26;3.88;84.74
70676;DHT22;59069;52.242;20.900;2023-02-25T16:15:55;3.90;84.99
70676;DHT22;59069;52.242;20.900;2023-02-25T16:18:34;3.88;85.07
70676;DHT22;59069;52.242;20.900;2023-02-25T16:21:06;3.87;85.16
70676;DHT22;59069;52.242;20.900;2023-02-25T16:23:38;3.88;85.37
70676;DHT22;59069;52.242;20.900;2023-02-25T16:34:27;3.80;85.71
70676;DHT22;59069;52.242;20.900;2023-02-25T16:37:27;3.80;85.77
70676;DHT22;59069;52.242;20.900;2023-02-25T16:39:54;3.83;85.87
70676;DHT22;59069;52.242;20.900;2023-02-25T16:42:21;3.81;85.95
70676;DHT22;59069;52.242;20.900;2023-02-25T16:44:56;3.78;86.14
70676;DHT22;59069;52.242;20.900;2023-02-25T16:47:28;3.80;86.11
70676;DHT22;59069;52.242;20.900;2023-02-25T16:49:57;3.78;86.22
70676;DHT22;59069;52.242;20.900;2023-02-25T16:52:32;3.77;86.23
70676;DHT22;59069;52.242;20.900;2023-02-25T16:55:02;3.77;86.26
70676;DHT22;59069;52.242;20.900;2023-02-25T16:57:30;3.76;86.32
70676;DHT22;59069;52.242;20.900;2023-02-25T17:00:19;3.78;86.38
70676;DHT22;59069;52.242;20.900;2023-02-25T17:02:50;3.77;86.49
70676;DHT22;59069;52.242;20.900;2023-02-25T17:05:35;3.77;86.60
70676;DHT22;59069;52.242;20.900;2023-02-25T17:08:13;3.77;86.49
70676;DHT22;59069;52.242;20.900;2023-02-25T17:10:53;3.74;86.41
70676;DHT22;59069;52.242;20.900;2023-02-25T17:13:24;3.67;86.45
70676;DHT22;59069;52.242;20.900;2023-02-25T17:15:52;3.66;86.48
70676;DHT22;59069;52.242;20.900;2023-02-25T17:18:25;3.64;86.48
70676;DHT22;59069;52.242;20.900;2023-02-25T17:21:00;3.62;86.55
70676;DHT22;59069;52.242;20.900;2023-02-25T17:23:26;3.59;86.69
70676;DHT22;59069;52.242;20.900;2023-02-25T17:25:52;3.56;86.77
70676;DHT22;59069;52.242;20.900;2023-02-25T17:28:25;3.50;86.71
70676;DHT22;59069;52.242;20.900;2023-02-25T17:31:11;3.50;86.81
70676;DHT22;59069;52.242;20.900;2023-02-25T17:33:47;3.50;86.91
70676;DHT22;59069;52.242;20.900;2023-02-25T17:36:15;3.49;87.05
70676;DHT22;59069;52.242;20.900;2023-02-25T17:38:43;3.50;87.17
70676;DHT22;59069;52.242;20.900;2023-02-25T17:41:16;3.49;87.24
70676;DHT22;59069;52.242;20.900;2023-02-25T17:43:42;3.50;87.36
70676;DHT22;59069;52.242;20.900;2023-02-25T17:46:33;3.50;87.40
70676;DHT22;59069;52.242;20.900;2023-02-25T17:49:05;3.54;87.52
70676;DHT22;59069;52.242;20.900;2023-02-25T17:51:40;3.53;87.49
70676;DHT22;59069;52.242;20.900;2023-02-25T17:54:16;3.53;87.55
70676;DHT22;59069;52.242;20.900;2023-02-25T17:56:57;3.50;87.45
70676;DHT22;59069;52.242;20.900;2023-02-25T18:01:58;3.44;87.55
70676;DHT22;59069;52.242;20.900;2023-02-25T18:04:37;3.39;87.57
70676;DHT22;59069;52.242;20.900;2023-02-25T18:07:27;3.33;87.62
70676;DHT22;59069;52.242;20.900;2023-02-25T18:09:54;3.32;87.84
70676;DHT22;59069;52.242;20.900;2023-02-25T18:12:37;3.32;87.82
70676;DHT22;59069;52.242;20.900;2023-02-25T18:15:19;3.29;87.88
70676;DHT22;59069;52.242;20.900;2023-02-25T18:17:53;3.27;87.93
70676;DHT22;59069;52.242;20.900;2023-02-25T18:23:04;3.26;88.27
70676;DHT22;59069;52.242;20.900;2023-02-25T18:25:33;3.27;88.19
70676;DHT22;59069;52.242;20.900;2023-02-25T18:27:59;3.30;88.21
70676;DHT22;59069;52.242;20.900;2023-02-25T18:30:27;3.30;88.28
70676;DHT22;59069;52.242;20.900;2023-02-25T18:32:53;3.30;88.25
70676;DHT22;59069;52.242;20.900;2023-02-25T18:35:22;3.32;88.27
70676;DHT22;59069;52.242;20.900;2023-02-25T18:37:50;3.33;88.29
70676;DHT22;59069;52.242;20.900;2023-02-25T18:40:19;3.35;88.33
70676;DHT22;59069;52.242;20.900;2023-02-25T18:42:46;3.33;88.37
70676;DHT22;59069;52.242;20.900;2023-02-25T18:45:14;3.35;88.43
70676;DHT22;59069;52.242;20.900;2023-02-25T18:47:40;3.37;88.55
70676;DHT22;59069;52.242;20.900;2023-02-25T18:50:06;3.40;88.52
70676;DHT22;59069;52.242;20.900;2023-02-25T18:52:32;3.40;88.54
70676;DHT22;59069;52.242;20.900;2023-02-25T18:54:57;3.43;88.63
70676;DHT22;59069;52.242;20.900;2023-02-25T18:57:25;3.44;88.71
70676;DHT22;59069;52.242;20.900;2023-02-25T18:59:51;3.47;88.71
70676;DHT22;59069;52.242;20.900;2023-02-25T19:02:29;3.49;88.71
70676;DHT22;59069;52.242;20.900;2023-02-25T19:04:56;3.52;88.71
70676;DHT22;59069;52.242;20.900;2023-02-25T19:07:28;3.50;88.74
70676;DHT22;59069;52.242;20.900;2023-02-25T19:09:54;3.56;88.77
70676;DHT22;59069;52.242;20.900;2023-02-25T19:12:25;3.53;88.78
70676;DHT22;59069;52.242;20.900;2023-02-25T19:15:00;3.53;88.71
70676;DHT22;59069;52.242;20.900;2023-02-25T19:17:27;3.54;88.65
70676;DHT22;59069;52.242;20.900;2023-02-25T19:19:53;3.50;88.59
70676;DHT22;59069;52.242;20.900;2023-02-25T19:22:19;3.50;88.44
70676;DHT22;59069;52.242;20.900;2023-02-25T19:24:46;3.43;88.25
70676;DHT22;59069;52.242;20.900;2023-02-25T19:27:19;3.37;88.14
70676;DHT22;59069;52.242;20.900;2023-02-25T19:29:48;3.35;88.08
70676;DHT22;59069;52.242;20.900;2023-02-25T19:32:15;3.29;88.02
70676;DHT22;59069;52.242;20.900;2023-02-25T19:34:41;3.20;88.13
70676;DHT22;59069;52.242;20.900;2023-02-25T19:37:10;3.18;88.14